Time;durP1;ratioP1;P1;durP2;ratioP2;P2;SDS_P1;SDS_P2;PMS_P1;PMS_P2;Temp;Humidity;BMP_temperature;BMP_pressure;BME280_temperature;BME280_humidity;BME280_pressure;Samples;Min_cycle;Max_cycle;Signal;HPM_P1;HPM_P2
2022/07/20 00:01:05;;;;;;;5.63;1.70;;;26.20;58.70;;;;;;4460586;32;20133;-68
2022/07/20 00:03:31;;;;;;;2.30;1.70;;;26.20;58.70;;;;;;4460896;32;20070;-68
2022/07/20 00:05:57;;;;;;;2.83;1.73;;;26.30;58.80;;;;;;4461251;32;20054;-68
2022/07/20 00:11:19;;;;;;;3.15;1.80;;;26.20;58.70;;;;;;4461150;32;20088;-68
2022/07/20 00:13:54;;;;;;;4.43;2.00;;;26.20;58.70;;;;;;4460826;32;20199;-69
2022/07/20 00:16:21;;;;;;;2.83;1.50;;;26.20;58.70;;;;;;4461149;32;20077;-68
2022/07/20 00:18:48;;;;;;;3.15;1.80;;;26.20;58.70;;;;;;4458868;32;20413;-69
2022/07/20 00:21:14;;;;;;;2.83;1.92;;;26.20;58.70;;;;;;4444753;32;20066;-68
2022/07/20 00:23:40;;;;;;;2.00;1.50;;;26.20;58.70;;;;;;4444429;32;20073;-68
2022/07/20 00:26:06;;;;;;;2.35;1.73;;;26.20;58.70;;;;;;4460244;32;20219;-69
2022/07/20 00:28:32;;;;;;;3.28;1.65;;;26.20;58.70;;;;;;4457002;32;20396;-68
2022/07/20 00:30:58;;;;;;;3.05;2.10;;;26.20;58.70;;;;;;4451871;32;20224;-68
2022/07/20 00:33:24;;;;;;;2.85;1.60;;;26.20;58.70;;;;;;4453207;32;20070;-69
2022/07/20 00:35:49;;;;;;;1.92;1.70;;;26.20;58.70;;;;;;4449685;32;20216;-68
2022/07/20 00:38:15;;;;;;;2.58;1.70;;;26.20;58.70;;;;;;4460376;32;20235;-68
2022/07/20 00:40:41;;;;;;;2.13;1.52;;;26.20;58.70;;;;;;4460392;32;20102;-69
2022/07/20 00:43:07;;;;;;;1.92;1.50;;;26.20;58.70;;;;;;4455722;32;20419;-68
2022/07/20 00:45:33;;;;;;;2.00;1.70;;;26.20;58.70;;;;;;4454689;32;20224;-68
2022/07/20 00:47:59;;;;;;;2.03;1.77;;;26.20;58.70;;;;;;4457117;32;20058;-68
2022/07/20 00:50:26;;;;;;;2.65;1.85;;;26.20;58.70;;;;;;4453115;32;20551;-68
2022/07/20 00:52:52;;;;;;;1.80;1.52;;;26.20;58.70;;;;;;4460044;32;20076;-68
2022/07/20 00:55:18;;;;;;;2.00;1.63;;;26.20;59.60;;;;;;4460641;32;20174;-68
2022/07/20 00:57:44;;;;;;;3.20;1.50;;;26.20;58.70;;;;;;4460313;32;20095;-69
2022/07/20 01:00:12;;;;;;;2.00;1.52;;;26.20;58.70;;;;;;4454681;32;20074;-68
2022/07/20 01:02:39;;;;;;;2.13;1.60;;;26.20;58.70;;;;;;4444805;32;20087;-68
2022/07/20 01:05:13;;;;;;;4.43;1.90;;;26.20;58.70;;;;;;4459072;32;20592;-68
2022/07/20 01:07:41;;;;;;;2.35;1.50;;;26.20;58.70;;;;;;4460438;32;20291;-68
2022/07/20 01:10:07;;;;;;;1.48;1.38;;;26.20;58.70;;;;;;4460172;32;20070;-68
2022/07/20 01:12:34;;;;;;;2.65;1.50;;;26.10;58.60;;;;;;4460091;32;20083;-68
2022/07/20 01:15:00;;;;;;;2.17;1.63;;;26.20;58.60;;;;;;4460119;32;20065;-68
2022/07/20 01:17:25;;;;;;;2.50;1.67;;;26.20;58.60;;;;;;4460270;32;20098;-68
2022/07/20 01:19:51;;;;;;;1.58;1.48;;;26.20;58.60;;;;;;4460014;32;20623;-69
2022/07/20 01:22:17;;;;;;;1.95;1.55;;;26.20;58.60;;;;;;4460183;32;20634;-68
2022/07/20 01:24:43;;;;;;;3.35;1.80;;;26.20;59.50;;;;;;4460244;32;20630;-70
2022/07/20 01:27:08;;;;;;;1.42;1.30;;;26.20;58.60;;;;;;4459965;32;20520;-68
2022/07/20 01:29:34;;;;;;;2.88;1.50;;;26.20;58.60;;;;;;4460300;32;20163;-68
2022/07/20 01:32:00;;;;;;;2.38;1.90;;;26.10;58.40;;;;;;4458700;32;20159;-69
2022/07/20 01:34:26;;;;;;;2.25;1.73;;;26.10;58.40;;;;;;4454591;32;20106;-68
2022/07/20 01:36:51;;;;;;;2.88;1.48;;;26.10;58.40;;;;;;4454674;32;20065;-68
2022/07/20 01:39:17;;;;;;;1.98;1.63;;;26.10;58.40;;;;;;4458672;32;20073;-68
2022/07/20 01:41:43;;;;;;;2.00;1.60;;;26.10;58.40;;;;;;4459135;32;20066;-68
2022/07/20 01:44:09;;;;;;;2.80;1.50;;;26.10;58.40;;;;;;4458744;32;20082;-68
2022/07/20 01:46:35;;;;;;;2.42;1.70;;;26.10;58.40;;;;;;4460080;32;20077;-68
2022/07/20 01:49:01;;;;;;;2.50;1.70;;;26.10;58.40;;;;;;4459870;32;20117;-69
2022/07/20 01:51:27;;;;;;;3.20;1.73;;;26.10;58.40;;;;;;4458814;32;20235;-68
2022/07/20 01:53:52;;;;;;;2.10;1.80;;;26.10;58.30;;;;;;4459723;32;20121;-68
2022/07/20 01:56:18;;;;;;;2.15;1.38;;;26.10;58.30;;;;;;4459691;32;20290;-68
2022/07/20 01:58:44;;;;;;;1.80;1.50;;;26.10;58.30;;;;;;4459963;32;20077;-68
2022/07/20 02:01:10;;;;;;;1.85;1.55;;;26.10;58.30;;;;;;4459712;32;20151;-68
2022/07/20 02:03:37;;;;;;;2.47;1.52;;;26.10;59.30;;;;;;4459966;32;20192;-68
2022/07/20 02:06:03;;;;;;;2.92;1.67;;;26.10;58.30;;;;;;4458510;32;20219;-68
2022/07/20 02:08:29;;;;;;;2.00;1.65;;;26.00;58.30;;;;;;4458829;32;20058;-68
2022/07/20 02:10:55;;;;;;;3.15;1.70;;;26.00;58.30;;;;;;4459885;32;20376;-68
2022/07/20 02:13:22;;;;;;;2.50;1.42;;;26.00;58.30;;;;;;4459598;32;20090;-69
2022/07/20 02:18:32;;;;;;;2.80;1.70;;;26.00;58.30;;;;;;4459676;32;20174;-68
2022/07/20 02:20:58;;;;;;;3.25;1.48;;;26.00;58.30;;;;;;4459682;32;20511;-68
2022/07/20 02:23:23;;;;;;;1.50;1.27;;;26.00;58.30;;;;;;4458219;32;20255;-68
2022/07/20 02:25:49;;;;;;;1.88;1.50;;;26.00;58.30;;;;;;4460449;32;20070;-68
2022/07/20 02:28:15;;;;;;;1.33;1.23;;;26.00;58.30;;;;;;4461474;32;20190;-68
2022/07/20 02:30:41;;;;;;;2.25;1.73;;;26.00;58.30;;;;;;4462719;32;20090;-68
2022/07/20 02:33:07;;;;;;;2.72;1.80;;;26.00;58.30;;;;;;4458133;32;20171;-68
2022/07/20 02:35:33;;;;;;;2.00;1.30;;;26.00;58.30;;;;;;4446431;32;20132;-68
2022/07/20 02:37:59;;;;;;;2.10;1.60;;;26.00;58.30;;;;;;4444386;32;20070;-68
2022/07/20 02:40:25;;;;;;;1.70;1.48;;;26.00;58.30;;;;;;4446334;32;20510;-69
2022/07/20 02:42:51;;;;;;;2.42;1.40;;;26.00;58.30;;;;;;4446400;32;20058;-69
2022/07/20 02:45:17;;;;;;;2.00;1.48;;;26.00;58.30;;;;;;4446414;32;20125;-68
2022/07/20 02:47:44;;;;;;;1.80;1.70;;;26.00;58.30;;;;;;4446688;32;20085;-68
2022/07/20 02:50:11;;;;;;;1.55;1.40;;;26.00;59.20;;;;;;4446378;32;20085;-68
2022/07/20 02:52:38;;;;;;;1.70;1.40;;;26.00;58.30;;;;;;4456357;32;20219;-68
2022/07/20 02:55:06;;;;;;;2.40;1.58;;;26.00;58.30;;;;;;4446279;32;20102;-68
2022/07/20 02:57:32;;;;;;;1.70;1.42;;;26.00;58.30;;;;;;4446349;32;20171;-68
2022/07/20 02:59:58;;;;;;;2.42;1.70;;;26.00;58.30;;;;;;4446721;32;20086;-69
2022/07/20 03:02:24;;;;;;;2.50;1.83;;;26.00;58.20;;;;;;4450956;32;20058;-68
2022/07/20 03:04:49;;;;;;;1.85;1.48;;;25.90;58.20;;;;;;4445323;32;20105;-69
2022/07/20 03:07:15;;;;;;;1.58;1.45;;;26.00;58.20;;;;;;4456409;32;20060;-68
2022/07/20 03:09:42;;;;;;;1.52;1.40;;;26.00;58.20;;;;;;4443124;32;20086;-68
2022/07/20 03:12:09;;;;;;;1.67;1.30;;;26.00;58.20;;;;;;4445382;32;20081;-68
2022/07/20 03:14:35;;;;;;;3.90;1.55;;;25.90;58.20;;;;;;4445186;32;20069;-68
2022/07/20 03:17:01;;;;;;;4.63;1.45;;;25.90;58.20;;;;;;4444951;32;20094;-68
2022/07/20 03:19:27;;;;;;;2.08;1.58;;;25.90;58.20;;;;;;4445208;32;20585;-68
2022/07/20 03:21:53;;;;;;;2.83;1.90;;;25.90;58.20;;;;;;4445070;32;20085;-68
2022/07/20 03:24:19;;;;;;;4.15;1.65;;;26.00;58.30;;;;;;4444885;32;20102;-69
2022/07/20 03:26:45;;;;;;;3.65;1.55;;;25.90;58.30;;;;;;4443912;32;20066;-68
2022/07/20 03:29:10;;;;;;;1.88;1.40;;;25.90;58.30;;;;;;4445142;32;20544;-68
2022/07/20 03:31:36;;;;;;;2.70;1.60;;;25.90;58.30;;;;;;4431093;32;20259;-70
2022/07/20 03:34:02;;;;;;;2.33;1.75;;;25.90;58.30;;;;;;4445398;32;20078;-69
2022/07/20 03:36:28;;;;;;;3.45;1.50;;;26.00;58.50;;;;;;4445116;32;20499;-68
2022/07/20 03:38:54;;;;;;;3.75;1.70;;;25.90;58.40;;;;;;4445836;32;20411;-69
2022/07/20 03:41:19;;;;;;;4.15;1.83;;;25.90;58.40;;;;;;4446175;32;20058;-68
2022/07/20 03:43:45;;;;;;;2.28;1.50;;;25.90;58.50;;;;;;4445854;32;20088;-70
2022/07/20 03:46:11;;;;;;;2.63;1.40;;;25.90;58.50;;;;;;4445705;32;20200;-69
2022/07/20 03:48:38;;;;;;;2.10;1.60;;;25.90;58.50;;;;;;4446018;32;20575;-70
2022/07/20 03:51:04;;;;;;;2.67;1.77;;;25.90;58.50;;;;;;4445749;32;20093;-70
2022/07/20 03:53:30;;;;;;;2.47;1.30;;;25.90;58.50;;;;;;4445589;32;20124;-69
2022/07/20 03:55:56;;;;;;;2.83;1.70;;;25.90;58.40;;;;;;4445682;32;20090;-70
2022/07/20 03:58:21;;;;;;;2.45;1.70;;;25.90;58.30;;;;;;4445819;32;20389;-71
2022/07/20 04:00:47;;;;;;;2.90;1.50;;;25.90;58.30;;;;;;4445701;32;20404;-72
2022/07/20 04:03:13;;;;;;;2.15;1.50;;;25.90;58.30;;;;;;4444422;32;20066;-69
2022/07/20 04:05:39;;;;;;;2.92;1.65;;;25.90;58.30;;;;;;4445981;32;20140;-69
2022/07/20 04:08:08;;;;;;;3.47;1.65;;;25.80;58.20;;;;;;4445818;32;20074;-69
2022/07/20 04:10:37;;;;;;;1.95;1.33;;;25.80;58.20;;;;;;4445814;32;20626;-69
2022/07/20 04:13:04;;;;;;;2.97;1.52;;;25.80;58.20;;;;;;4444397;32;20086;-70
2022/07/20 04:15:31;;;;;;;3.15;1.45;;;25.90;58.20;;;;;;4445338;32;20081;-69
2022/07/20 04:17:57;;;;;;;1.20;1.10;;;25.80;58.20;;;;;;4445584;32;20062;-70
2022/07/20 04:20:23;;;;;;;1.83;1.40;;;25.80;58.20;;;;;;4445427;32;20081;-69
2022/07/20 04:22:49;;;;;;;3.03;1.42;;;25.80;58.10;;;;;;4445239;32;20070;-69
2022/07/20 04:25:15;;;;;;;1.67;1.50;;;25.80;58.10;;;;;;4445209;32;20562;-69
2022/07/20 04:27:42;;;;;;;1.92;1.48;;;25.80;58.10;;;;;;4445324;32;20074;-70
2022/07/20 04:30:09;;;;;;;2.35;1.30;;;25.80;58.10;;;;;;4444181;32;20418;-70
2022/07/20 04:32:34;;;;;;;1.67;1.33;;;25.80;58.10;;;;;;4450402;32;20162;-70
2022/07/20 04:35:00;;;;;;;1.55;1.42;;;25.80;58.10;;;;;;4451771;32;20084;-70
2022/07/20 04:37:26;;;;;;;3.63;1.67;;;25.80;58.10;;;;;;4459028;32;20122;-70
2022/07/20 04:39:52;;;;;;;2.95;1.60;;;25.80;58.10;;;;;;4460843;32;20073;-69
2022/07/20 04:42:17;;;;;;;1.48;1.30;;;25.80;58.10;;;;;;4460580;32;20123;-70
2022/07/20 04:44:43;;;;;;;2.67;1.70;;;25.80;58.10;;;;;;4460783;32;20077;-69
2022/07/20 04:47:09;;;;;;;1.90;1.40;;;25.80;58.10;;;;;;4460355;32;20077;-69
2022/07/20 04:49:35;;;;;;;2.35;1.40;;;25.80;58.10;;;;;;4460290;32;20212;-69
2022/07/20 04:52:01;;;;;;;1.83;1.50;;;25.80;58.10;;;;;;4460655;32;20128;-69
2022/07/20 04:54:27;;;;;;;1.95;1.70;;;25.80;58.10;;;;;;4460122;32;20231;-70
2022/07/20 04:56:53;;;;;;;2.00;1.48;;;25.80;58.10;;;;;;4460690;32;20076;-70
2022/07/20 04:59:18;;;;;;;2.03;1.50;;;25.80;58.10;;;;;;4460289;32;20082;-69
2022/07/20 05:01:44;;;;;;;2.97;1.50;;;25.80;58.00;;;;;;4460351;32;20077;-69
2022/07/20 05:04:10;;;;;;;2.60;1.80;;;25.80;58.00;;;;;;4460340;32;20156;-70
2022/07/20 05:06:36;;;;;;;2.47;1.55;;;25.80;58.00;;;;;;4460178;32;20141;-70
2022/07/20 05:09:03;;;;;;;1.88;1.48;;;25.80;58.00;;;;;;4460451;32;20066;-70
2022/07/20 05:11:30;;;;;;;2.20;1.70;;;25.70;57.90;;;;;;4460123;32;20113;-71
2022/07/20 05:13:56;;;;;;;1.92;1.30;;;25.70;57.90;;;;;;4460499;32;20125;-70
2022/07/20 05:16:23;;;;;;;3.00;1.65;;;25.80;58.00;;;;;;4459884;32;20099;-70
2022/07/20 05:18:49;;;;;;;1.73;1.38;;;25.70;57.90;;;;;;4459387;32;20076;-69
2022/07/20 05:21:15;;;;;;;2.05;1.65;;;25.70;57.90;;;;;;4460151;32;20113;-70
2022/07/20 05:23:43;;;;;;;1.70;1.55;;;25.80;57.90;;;;;;4459862;32;20159;-70
2022/07/20 05:26:09;;;;;;;1.60;1.50;;;25.80;57.90;;;;;;4460158;32;20061;-70
2022/07/20 05:28:35;;;;;;;1.60;1.50;;;25.80;57.90;;;;;;4460027;32;20381;-70
2022/07/20 05:31:01;;;;;;;4.07;1.40;;;25.80;57.90;;;;;;4459162;32;20207;-70
2022/07/20 05:33:26;;;;;;;2.17;1.70;;;25.70;57.80;;;;;;4459955;32;20247;-70
2022/07/20 05:35:52;;;;;;;1.65;1.48;;;25.80;57.90;;;;;;4459915;32;20078;-70
2022/07/20 05:38:19;;;;;;;2.30;1.70;;;25.80;57.90;;;;;;4460089;32;20496;-69
2022/07/20 05:40:46;;;;;;;2.72;1.63;;;25.80;57.90;;;;;;4459863;32;20139;-70
2022/07/20 05:43:12;;;;;;;1.60;1.33;;;25.80;57.90;;;;;;4460322;32;20141;-69
2022/07/20 05:45:38;;;;;;;2.20;1.42;;;25.80;57.80;;;;;;4459603;32;20092;-69
2022/07/20 05:48:05;;;;;;;2.33;1.70;;;25.80;57.80;;;;;;4460172;32;20058;-70
2022/07/20 05:50:32;;;;;;;2.78;1.60;;;25.80;57.80;;;;;;4458895;32;20534;-70
2022/07/20 05:52:58;;;;;;;1.90;1.70;;;25.80;58.70;;;;;;4459438;32;20478;-69
2022/07/20 05:55:24;;;;;;;1.85;1.30;;;25.80;57.80;;;;;;4458732;32;20073;-70
2022/07/20 05:57:49;;;;;;;2.08;1.75;;;25.80;57.80;;;;;;4459845;32;20416;-70
2022/07/20 06:00:16;;;;;;;1.73;1.50;;;25.90;57.80;;;;;;4462406;32;20220;-70
2022/07/20 06:02:46;;;;;;;2.15;1.48;;;25.80;57.70;;;;;;4462932;32;20114;-69
2022/07/20 06:05:12;;;;;;;1.88;1.42;;;25.90;57.80;;;;;;4462949;32;20223;-69
2022/07/20 06:07:38;;;;;;;2.17;1.55;;;25.90;57.80;;;;;;4462824;32;20062;-69
2022/07/20 06:10:05;;;;;;;2.65;1.67;;;25.90;57.70;;;;;;4462017;32;20159;-69
2022/07/20 06:12:30;;;;;;;2.00;1.52;;;25.90;57.70;;;;;;4462856;32;20077;-69
2022/07/20 06:14:56;;;;;;;1.80;1.40;;;25.90;57.60;;;;;;4462698;32;20124;-69
2022/07/20 06:17:23;;;;;;;2.47;1.58;;;26.00;57.70;;;;;;4462731;32;20175;-69
2022/07/20 06:19:49;;;;;;;1.50;1.40;;;26.00;57.70;;;;;;4462553;32;20271;-69
2022/07/20 06:22:15;;;;;;;2.10;1.55;;;26.00;57.60;;;;;;4462967;32;20069;-69
2022/07/20 06:24:40;;;;;;;1.40;1.30;;;26.00;57.60;;;;;;4461191;32;20388;-69
2022/07/20 06:27:06;;;;;;;1.75;1.48;;;26.00;57.60;;;;;;4462660;32;20084;-69
2022/07/20 06:29:32;;;;;;;1.90;1.65;;;26.00;57.50;;;;;;4462588;32;20551;-69
2022/07/20 06:31:58;;;;;;;2.42;1.50;;;26.00;57.50;;;;;;4462389;32;20220;-69
2022/07/20 06:34:24;;;;;;;3.55;1.50;;;26.00;57.50;;;;;;4462697;32;20054;-69
2022/07/20 06:36:50;;;;;;;3.35;1.60;;;26.00;57.40;;;;;;4462486;32;20407;-69
2022/07/20 06:39:16;;;;;;;1.30;1.17;;;26.10;57.40;;;;;;4462213;32;20522;-69
2022/07/20 06:41:41;;;;;;;1.95;1.40;;;26.10;57.40;;;;;;4462543;32;20090;-69
2022/07/20 06:44:07;;;;;;;2.10;1.30;;;26.10;57.30;;;;;;4451420;32;20176;-69
2022/07/20 06:46:33;;;;;;;1.80;1.30;;;26.10;57.20;;;;;;4462588;32;20212;-69
2022/07/20 06:48:59;;;;;;;3.45;1.48;;;26.20;57.30;;;;;;4462240;32;20092;-69
2022/07/20 06:51:25;;;;;;;1.63;1.20;;;26.20;57.20;;;;;;4462526;32;20066;-69
2022/07/20 06:53:51;;;;;;;1.60;1.40;;;26.10;57.10;;;;;;4461973;32;20065;-70
2022/07/20 06:56:16;;;;;;;2.75;1.40;;;26.20;57.20;;;;;;4462069;32;20124;-69
2022/07/20 06:58:42;;;;;;;2.72;1.48;;;26.20;57.10;;;;;;4462384;32;20535;-69
2022/07/20 07:01:08;;;;;;;1.60;1.50;;;26.20;57.10;;;;;;4462094;32;20070;-69
2022/07/20 07:03:34;;;;;;;1.95;1.63;;;26.20;57.10;;;;;;4462322;32;20078;-69
2022/07/20 07:06:00;;;;;;;1.88;1.50;;;26.20;57.10;;;;;;4462071;32;20139;-69
2022/07/20 07:08:25;;;;;;;2.00;1.55;;;26.20;57.00;;;;;;4462011;32;20496;-69
2022/07/20 07:10:51;;;;;;;2.22;1.48;;;26.30;57.10;;;;;;4461559;32;20073;-69
2022/07/20 07:13:17;;;;;;;1.60;1.50;;;26.30;57.00;;;;;;4461919;32;20081;-69
2022/07/20 07:15:43;;;;;;;9.68;1.90;;;26.30;57.30;;;;;;4461978;32;20503;-74
2022/07/20 07:18:09;;;;;;;8.57;2.30;;;26.30;57.70;;;;;;4461733;32;20155;-71
2022/07/20 07:20:35;;;;;;;3.67;2.30;;;26.30;56.90;;;;;;4462142;32;20509;-72
2022/07/20 07:23:01;;;;;;;4.50;2.10;;;26.40;56.40;;;;;;4461561;32;20084;-72
2022/07/20 07:25:27;;;;;;;5.70;2.30;;;26.40;56.20;;;;;;4462197;32;20102;-71
2022/07/20 07:27:53;;;;;;;4.55;2.38;;;26.30;56.30;;;;;;4460794;32;20078;-71
2022/07/20 07:30:18;;;;;;;6.32;2.28;;;26.40;56.50;;;;;;4461705;32;20066;-72
2022/07/20 07:32:44;;;;;;;3.60;2.03;;;26.40;56.70;;;;;;4461819;32;20077;-72
2022/07/20 07:35:10;;;;;;;4.97;2.42;;;26.40;56.80;;;;;;4460712;32;20074;-72
2022/07/20 07:37:37;;;;;;;3.20;2.33;;;26.40;56.80;;;;;;4461581;32;20073;-72
2022/07/20 07:40:04;;;;;;;3.97;2.42;;;26.40;57.00;;;;;;4461570;32;20097;-72
2022/07/20 07:42:30;;;;;;;6.03;2.53;;;26.40;57.00;;;;;;4461490;32;20092;-72
2022/07/20 07:44:55;;;;;;;3.35;2.30;;;26.40;57.00;;;;;;4461693;32;20065;-72
2022/07/20 07:47:21;;;;;;;4.75;2.22;;;26.40;57.10;;;;;;4461483;32;20132;-73
2022/07/20 07:49:47;;;;;;;7.03;2.50;;;26.40;57.00;;;;;;4460409;32;20483;-72
2022/07/20 07:52:13;;;;;;;3.33;2.13;;;26.40;57.10;;;;;;4461421;32;20081;-72
2022/07/20 07:54:39;;;;;;;6.53;2.38;;;26.40;57.10;;;;;;4460897;32;20415;-72
2022/07/20 07:57:05;;;;;;;4.95;2.83;;;26.40;57.00;;;;;;4461502;32;20069;-72
2022/07/20 07:59:31;;;;;;;4.57;2.10;;;26.40;57.10;;;;;;4461103;32;20180;-72
2022/07/20 08:01:56;;;;;;;3.88;2.30;;;26.40;57.10;;;;;;4461362;32;20128;-72
2022/07/20 08:04:22;;;;;;;4.78;2.58;;;26.40;57.20;;;;;;4450257;32;20073;-69
2022/07/20 08:06:49;;;;;;;6.32;2.45;;;26.40;57.10;;;;;;4461359;32;20076;-70
2022/07/20 08:09:15;;;;;;;4.80;2.90;;;26.50;57.10;;;;;;4461233;32;20086;-69
2022/07/20 08:11:41;;;;;;;3.40;2.78;;;26.50;57.00;;;;;;4460017;32;20081;-72
2022/07/20 08:14:07;;;;;;;5.57;2.72;;;26.50;57.00;;;;;;4461351;32;20113;-72
2022/07/20 08:16:33;;;;;;;4.65;2.80;;;26.40;56.90;;;;;;4459775;32;20596;-72
2022/07/20 08:18:59;;;;;;;7.60;2.90;;;26.50;57.00;;;;;;4461186;32;20085;-72
2022/07/20 08:21:25;;;;;;;4.30;3.17;;;26.50;57.00;;;;;;4460898;32;20070;-73
2022/07/20 08:23:51;;;;;;;4.63;3.25;;;26.50;57.00;;;;;;4460215;32;20104;-72
2022/07/20 08:26:17;;;;;;;7.43;3.75;;;26.50;57.00;;;;;;4461063;32;20639;-73
2022/07/20 08:28:43;;;;;;;8.32;3.90;;;26.50;57.10;;;;;;4439446;32;20203;-72
2022/07/20 08:31:09;;;;;;;10.48;5.55;;;26.50;57.00;;;;;;4459825;32;20155;-72
2022/07/20 08:33:34;;;;;;;11.38;5.95;;;26.50;56.80;;;;;;4460735;32;20088;-79
2022/07/20 08:36:00;;;;;;;10.43;5.88;;;26.50;56.60;;;;;;4450274;32;20525;-73
2022/07/20 08:38:26;;;;;;;13.48;6.07;;;26.50;56.60;;;;;;4460812;32;20299;-74
2022/07/20 08:43:00;;;;;;;11.85;7.43;;;26.50;56.70;;;;;;4604494;31;20121;-65
2022/07/20 08:45:28;;;;;;;12.68;7.22;;;26.50;56.80;;;;;;4593181;31;20087;-65
2022/07/20 08:47:57;;;;;;;14.63;7.93;;;26.50;56.90;;;;;;4581224;31;20141;-65
2022/07/20 08:50:25;;;;;;;15.05;8.38;;;26.50;57.00;;;;;;4578938;31;20095;-66
2022/07/20 08:52:52;;;;;;;11.00;7.75;;;26.50;57.20;;;;;;4580839;31;20126;-64
2022/07/20 08:55:19;;;;;;;10.63;8.55;;;26.50;57.30;;;;;;4582565;31;20706;-65
2022/07/20 08:57:46;;;;;;;20.85;9.40;;;26.50;57.40;;;;;;4580885;31;20149;-65
2022/07/20 09:00:13;;;;;;;16.40;8.85;;;26.50;57.60;;;;;;4577735;31;20265;-65
2022/07/20 09:03:09;;;;;;;15.93;9.30;;;26.50;57.80;;;;;;4584058;31;20094;-67
2022/07/20 09:05:37;;;;;;;14.90;9.02;;;26.50;58.20;;;;;;4566823;31;20126;-67
2022/07/20 09:08:05;;;;;;;22.38;10.18;;;26.50;58.20;;;;;;4585093;31;20135;-67
2022/07/20 09:10:37;;;;;;;16.25;9.52;;;26.50;58.50;;;;;;4569297;31;20702;-67
2022/07/20 09:13:14;;;;;;;16.45;10.38;;;26.50;58.70;;;;;;4573239;31;20135;-64
2022/07/20 09:15:42;;;;;;;20.38;11.32;;;26.50;58.80;;;;;;4586564;31;20075;-63
2022/07/20 09:18:19;;;;;;;21.23;10.90;;;26.60;59.00;;;;;;4591518;31;20139;-65
2022/07/20 09:20:59;;;;;;;19.33;11.65;;;26.60;59.10;;;;;;4585831;31;20127;-64
2022/07/20 09:23:31;;;;;;;25.13;12.65;;;26.60;59.40;;;;;;4579997;31;20254;-66
2022/07/20 09:26:06;;;;;;;23.00;12.80;;;26.60;59.70;;;;;;4578893;31;20143;-66
2022/07/20 09:28:42;;;;;;;22.80;13.30;;;26.60;59.90;;;;;;4581854;31;20099;-65
2022/07/20 09:31:36;;;;;;;25.15;14.13;;;26.60;60.20;;;;;;4580364;31;20157;-65
2022/07/20 09:34:04;;;;;;;24.02;14.77;;;26.60;60.50;;;;;;4584424;31;20603;-65
2022/07/20 09:36:33;;;;;;;27.17;15.38;;;26.70;60.60;;;;;;4589547;31;20135;-64
2022/07/20 09:39:16;;;;;;;23.73;15.77;;;26.70;60.80;;;;;;4585156;31;20147;-63
2022/07/20 09:41:54;;;;;;;26.08;15.90;;;26.70;61.00;;;;;;4570991;31;20706;-63
2022/07/20 09:44:23;;;;;;;27.35;16.52;;;26.70;61.10;;;;;;4579953;31;20590;-63
2022/07/20 09:46:50;;;;;;;22.73;16.63;;;26.70;61.30;;;;;;4578569;31;20139;-63
2022/07/20 09:49:16;;;;;;;31.63;17.80;;;26.70;61.40;;;;;;4579189;31;20146;-64
2022/07/20 09:51:47;;;;;;;27.80;17.25;;;26.70;61.50;;;;;;4581372;31;20151;-64
2022/07/20 09:54:12;;;;;;;32.85;17.98;;;26.80;61.60;;;;;;4578594;31;20091;-63
2022/07/20 09:56:43;;;;;;;38.08;19.15;;;26.70;61.50;;;;;;4580182;31;20111;-64
2022/07/20 09:59:11;;;;;;;25.70;18.63;;;26.70;61.60;;;;;;4581656;31;20653;-64
2022/07/20 10:01:40;;;;;;;26.20;18.52;;;26.80;61.80;;;;;;4579648;31;20149;-65
2022/07/20 10:04:08;;;;;;;28.20;19.60;;;26.80;61.90;;;;;;4581537;31;20137;-65
2022/07/20 10:06:36;;;;;;;35.05;18.70;;;26.80;61.80;;;;;;4580038;31;20246;-65
2022/07/20 10:09:04;;;;;;;27.00;18.92;;;26.80;61.80;;;;;;4580966;31;20549;-64
2022/07/20 10:11:30;;;;;;;31.42;18.20;;;26.80;61.70;;;;;;4565616;31;20083;-64
2022/07/20 10:13:58;;;;;;;28.90;18.15;;;26.80;61.80;;;;;;4579141;31;20195;-63
2022/07/20 10:16:44;;;;;;;26.75;17.90;;;26.80;61.70;;;;;;4580175;31;20671;-64
2022/07/20 10:19:10;;;;;;;28.10;17.90;;;26.80;61.80;;;;;;4579299;31;20137;-64
2022/07/20 10:21:43;;;;;;;23.92;17.70;;;26.70;61.70;;;;;;4580065;31;20180;-65
2022/07/20 10:24:30;;;;;;;24.08;17.50;;;26.80;61.80;;;;;;4580413;31;20225;-64
2022/07/20 10:27:08;;;;;;;25.55;17.20;;;26.80;61.70;;;;;;4578797;31;20159;-64
2022/07/20 10:29:43;;;;;;;26.88;18.55;;;26.70;61.60;;;;;;4581256;31;20138;-64
2022/07/20 10:32:22;;;;;;;25.38;16.85;;;26.70;61.50;;;;;;4579539;31;20188;-65
2022/07/20 10:34:58;;;;;;;24.45;16.88;;;26.70;61.40;;;;;;4565942;31;20210;-64
2022/07/20 10:37:33;;;;;;;25.90;17.42;;;26.70;62.20;;;;;;4581198;31;20138;-65
2022/07/20 10:40:04;;;;;;;23.20;16.27;;;26.70;61.30;;;;;;4579379;31;20686;-64
2022/07/20 10:42:53;;;;;;;28.92;17.15;;;26.70;61.30;;;;;;4577945;31;20193;-65
2022/07/20 10:47:49;;;;;;;23.45;16.48;;;26.70;61.20;;;;;;4579868;31;20144;-65
2022/07/20 10:50:27;;;;;;;25.30;15.40;;;26.70;61.10;;;;;;4581051;31;20174;-64
2022/07/20 10:52:58;;;;;;;23.48;15.52;;;26.70;60.90;;;;;;4579067;31;20193;-64
2022/07/20 10:55:32;;;;;;;23.58;15.90;;;26.70;60.80;;;;;;4580759;31;20219;-63
2022/07/20 10:58:02;;;;;;;21.13;15.50;;;26.70;60.80;;;;;;4579600;31;20261;-64
2022/07/20 11:00:36;;;;;;;22.10;14.82;;;26.70;60.70;;;;;;4579951;31;20273;-64
2022/07/20 11:03:04;;;;;;;20.23;14.95;;;26.70;60.60;;;;;;4580693;31;20538;-64
2022/07/20 11:05:30;;;;;;;20.13;13.77;;;26.70;60.50;;;;;;4578295;31;20523;-64
2022/07/20 11:07:56;;;;;;;17.73;13.80;;;26.70;60.30;;;;;;4580668;31;20159;-65
2022/07/20 11:10:27;;;;;;;20.75;13.93;;;26.70;60.20;;;;;;4578936;31;20123;-66
2022/07/20 11:13:00;;;;;;;16.30;13.65;;;26.70;60.00;;;;;;4562949;31;20169;-67
2022/07/20 11:15:49;;;;;;;17.23;13.23;;;26.70;59.90;;;;;;4567215;31;20204;-67
2022/07/20 11:18:21;;;;;;;18.08;12.95;;;26.70;59.70;;;;;;4564185;31;20170;-65
2022/07/20 11:20:48;;;;;;;18.52;13.52;;;26.70;59.70;;;;;;4564605;31;20206;-65
2022/07/20 11:23:15;;;;;;;13.98;12.48;;;26.70;59.60;;;;;;4567687;31;20163;-65
2022/07/20 11:25:56;;;;;;;17.48;11.90;;;26.70;59.60;;;;;;4580215;31;20149;-65
2022/07/20 11:28:31;;;;;;;22.90;13.52;;;26.70;59.50;;;;;;4576729;31;20147;-66
2022/07/20 11:30:58;;;;;;;16.30;11.77;;;26.60;59.40;;;;;;4568507;31;20147;-66
2022/07/20 11:33:35;;;;;;;14.90;11.35;;;26.60;59.30;;;;;;4566506;31;20507;-66
2022/07/20 11:36:05;;;;;;;16.52;11.50;;;26.60;59.10;;;;;;4562207;31;20190;-66
2022/07/20 11:38:40;;;;;;;17.08;12.10;;;26.60;59.00;;;;;;4574737;31;20137;-67
2022/07/20 11:41:09;;;;;;;16.52;11.70;;;26.60;59.00;;;;;;4567988;31;20097;-65
2022/07/20 11:43:35;;;;;;;14.88;10.95;;;26.60;59.00;;;;;;4579077;31;20139;-65
2022/07/20 11:46:12;;;;;;;14.18;11.90;;;26.60;59.00;;;;;;4580135;31;20087;-65
2022/07/20 11:48:41;;;;;;;16.08;11.35;;;26.60;58.80;;;;;;4578567;31;20192;-67
2022/07/20 11:51:08;;;;;;;16.55;11.13;;;26.60;58.80;;;;;;4565606;31;20123;-65
2022/07/20 11:53:37;;;;;;;13.55;10.48;;;26.60;58.70;;;;;;4578569;31;20130;-66
2022/07/20 11:56:09;;;;;;;17.88;10.75;;;26.70;58.70;;;;;;4564755;31;20127;-67
2022/07/20 11:58:37;;;;;;;17.13;11.35;;;26.60;58.50;;;;;;4580076;31;20512;-66
2022/07/20 12:01:06;;;;;;;15.60;11.18;;;26.60;58.40;;;;;;4578065;31;20134;-65
2022/07/20 12:03:36;;;;;;;17.80;11.63;;;26.60;59.30;;;;;;4579953;31;20131;-65
2022/07/20 12:06:08;;;;;;;16.15;11.15;;;26.60;58.30;;;;;;4578241;31;20150;-66
2022/07/20 12:08:35;;;;;;;14.70;10.57;;;26.60;58.30;;;;;;4580190;31;20236;-66
2022/07/20 12:11:01;;;;;;;15.25;9.82;;;26.60;58.20;;;;;;4578949;31;20163;-65
2022/07/20 12:13:27;;;;;;;15.80;10.23;;;26.60;58.10;;;;;;4578912;31;20150;-66
2022/07/20 12:15:56;;;;;;;17.27;9.85;;;26.60;58.10;;;;;;4579755;31;20079;-66
2022/07/20 12:18:42;;;;;;;15.00;9.95;;;26.60;58.00;;;;;;4577335;31;20126;-66
2022/07/20 12:21:10;;;;;;;16.25;9.90;;;26.70;58.00;;;;;;4579673;31;20206;-66
2022/07/20 12:23:37;;;;;;;11.57;9.25;;;26.60;57.90;;;;;;4578127;31;20154;-65
2022/07/20 12:26:20;;;;;;;13.52;9.25;;;26.60;57.80;;;;;;4579298;31;20257;-66
2022/07/20 12:28:46;;;;;;;13.50;9.77;;;26.60;57.80;;;;;;4579784;31;20217;-65
2022/07/20 12:31:16;;;;;;;13.88;9.43;;;26.70;57.80;;;;;;4577930;31;20501;-66
2022/07/20 12:34:01;;;;;;;13.70;8.48;;;26.70;57.70;;;;;;4567112;31;20161;-65
2022/07/20 12:36:42;;;;;;;12.35;8.93;;;26.70;57.50;;;;;;4569824;31;20147;-66
2022/07/20 12:39:11;;;;;;;11.93;8.93;;;26.70;57.50;;;;;;4578563;31;20949;-66
2022/07/20 12:41:39;;;;;;;14.13;9.43;;;26.70;57.40;;;;;;4579334;31;20079;-66
2022/07/20 12:44:25;;;;;;;14.27;8.88;;;26.70;57.40;;;;;;4576981;31;20134;-64
2022/07/20 12:46:53;;;;;;;12.25;8.77;;;26.70;57.30;;;;;;4579644;31;20587;-64
2022/07/20 12:49:25;;;;;;;10.73;8.38;;;26.70;57.20;;;;;;4578197;31;20603;-65
2022/07/20 12:51:52;;;;;;;14.20;9.10;;;26.80;57.20;;;;;;4578856;31;20154;-65
2022/07/20 12:54:19;;;;;;;10.15;8.10;;;26.80;57.00;;;;;;4578732;31;20420;-64